createdAt,value
2019-02-21T00:00:01.562Z,20.68
2019-02-21T00:01:11.135Z,20.82
2019-02-21T00:02:16.446Z,19.05
2019-02-21T00:03:20.771Z,19.90
2019-02-21T00:04:23.281Z,22.52
2019-02-21T00:05:26.127Z,19.75
2019-02-21T00:06:28.808Z,16.73
2019-02-21T00:07:31.821Z,18.48
2019-02-21T00:08:34.644Z,22.00
2019-02-21T00:09:37.379Z,19.98
2019-02-21T00:10:40.130Z,20.52
2019-02-21T00:11:42.748Z,19.60
2019-02-21T00:12:47.271Z,19.82
2019-02-21T00:13:49.896Z,20.15
2019-02-21T00:14:52.546Z,20.12
2019-02-21T00:15:56.884Z,19.02
2019-02-21T00:16:59.522Z,19.90
2019-02-21T00:18:02.239Z,18.35
2019-02-21T00:19:04.827Z,21.27
2019-02-21T00:20:07.835Z,18.25
2019-02-21T00:21:10.679Z,19.65
2019-02-21T00:22:15.299Z,18.95
2019-02-21T00:23:20.843Z,20.80
2019-02-21T00:24:23.402Z,20.72
2019-02-21T00:25:26.197Z,18.07
2019-02-21T00:26:28.733Z,20.02
2019-02-21T00:27:31.275Z,20.32
2019-02-21T00:28:34.121Z,19.32
2019-02-21T00:29:38.409Z,19.75
2019-02-21T00:30:40.949Z,20.97
2019-02-21T00:31:43.731Z,16.85
2019-02-21T00:32:46.360Z,17.82
2019-02-21T00:33:50.955Z,19.50
2019-02-21T00:34:53.486Z,19.82
2019-02-21T00:35:56.045Z,20.17
2019-02-21T00:36:59.038Z,20.37
2019-02-21T00:38:03.562Z,18.48
2019-02-21T00:39:06.619Z,20.23
2019-02-21T00:40:09.426Z,17.57
2019-02-21T00:41:11.955Z,20.43
2019-02-21T00:42:14.609Z,18.50
2019-02-21T00:43:17.398Z,18.82
2019-02-21T00:44:20.040Z,17.57
2019-02-21T00:45:22.693Z,18.45
2019-02-21T00:46:25.466Z,20.00
2019-02-21T00:47:28.097Z,19.48
2019-02-21T00:48:30.833Z,19.70
2019-02-21T00:49:33.516Z,18.62
2019-02-21T00:50:36.250Z,19.02
2019-02-21T00:51:38.766Z,20.90
2019-02-21T00:52:41.500Z,20.50
2019-02-21T00:53:44.095Z,22.35
2019-02-21T00:54:46.649Z,21.93
2019-02-21T00:55:49.400Z,19.98
2019-02-21T00:56:52.054Z,17.77
2019-02-21T00:57:54.594Z,20.08
2019-02-21T00:58:57.123Z,19.05
2019-02-21T00:59:59.785Z,18.85
2019-02-21T01:01:02.300Z,18.85
2019-02-21T01:02:05.015Z,16.70
2019-02-21T01:03:07.538Z,26.40
2019-02-21T01:04:10.078Z,21.10
2019-02-21T01:05:13.101Z,18.98
2019-02-21T01:06:15.841Z,19.70
2019-02-21T01:07:20.690Z,19.73
2019-02-21T01:08:24.107Z,18.98
2019-02-21T01:09:27.678Z,23.85
2019-02-21T01:10:30.669Z,18.52
2019-02-21T01:11:34.433Z,16.55
2019-02-21T01:12:37.844Z,21.65
2019-02-21T01:13:41.149Z,20.00
2019-02-21T01:14:44.564Z,20.25
2019-02-21T01:15:47.782Z,16.75
2019-02-21T01:16:51.686Z,19.62
2019-02-21T01:17:57.060Z,21.15
2019-02-21T01:19:00.194Z,20.30
2019-02-21T01:20:03.728Z,18.12
2019-02-21T01:21:07.059Z,18.55
2019-02-21T01:22:11.583Z,20.25
2019-02-21T01:23:14.895Z,19.92
2019-02-21T01:24:17.575Z,18.62
2019-02-21T01:25:20.438Z,21.33
2019-02-21T01:26:23.356Z,21.42
2019-02-21T01:27:26.925Z,17.87
2019-02-21T01:28:31.482Z,18.17
2019-02-21T01:29:36.763Z,19.35
2019-02-21T01:30:40.005Z,21.02
2019-02-21T01:31:43.377Z,21.82
2019-02-21T01:32:47.988Z,20.05
2019-02-21T01:33:50.751Z,19.77
2019-02-21T01:34:53.719Z,20.43
2019-02-21T01:35:56.721Z,16.80
2019-02-21T01:36:59.354Z,18.52
2019-02-21T01:38:02.228Z,19.67
2019-02-21T01:39:06.153Z,21.70
2019-02-21T01:40:09.005Z,21.93
2019-02-21T01:41:11.547Z,20.35
2019-02-21T01:42:14.264Z,21.12
2019-02-21T01:43:16.779Z,19.62
2019-02-21T01:44:19.321Z,19.92
2019-02-21T01:45:22.090Z,18.12
2019-02-21T01:46:24.893Z,19.32
2019-02-21T01:47:27.647Z,20.97
2019-02-21T01:48:30.287Z,17.50
2019-02-21T01:49:32.931Z,20.25
2019-02-21T01:50:35.585Z,18.27
2019-02-21T01:51:40.038Z,20.00
2019-02-21T01:52:42.760Z,19.75
2019-02-21T01:53:45.470Z,20.80
2019-02-21T01:54:48.122Z,19.27
2019-02-21T01:55:50.845Z,20.45
2019-02-21T01:56:53.511Z,19.62
2019-02-21T01:57:56.101Z,18.90
2019-02-21T01:58:59.024Z,20.10
2019-02-21T02:00:01.682Z,19.75
2019-02-21T02:01:08.614Z,18.90
2019-02-21T02:02:10.058Z,19.80
2019-02-21T02:03:12.599Z,20.88
2019-02-21T02:04:15.195Z,21.70
2019-02-21T02:05:17.818Z,17.73
2019-02-21T02:06:21.646Z,20.00
2019-02-21T02:07:24.760Z,20.30
2019-02-21T02:08:27.293Z,19.73
2019-02-21T02:09:29.827Z,20.17
2019-02-21T02:10:32.648Z,17.65
2019-02-21T02:11:36.586Z,21.87
2019-02-21T02:12:40.332Z,21.00
2019-02-21T02:13:42.846Z,21.80
2019-02-21T02:14:45.758Z,22.75
2019-02-21T02:15:48.269Z,20.68
2019-02-21T02:16:50.855Z,17.92
2019-02-21T02:17:53.385Z,23.73
2019-02-21T02:18:56.047Z,19.50
2019-02-21T02:19:58.831Z,22.42
2019-02-21T02:21:03.650Z,22.48
2019-02-21T02:22:06.422Z,20.57
2019-02-21T02:23:09.147Z,20.20
2019-02-21T02:24:11.676Z,18.82
2019-02-21T02:25:14.598Z,21.80
2019-02-21T02:26:17.282Z,20.68
2019-02-21T02:27:19.879Z,19.48
2019-02-21T02:28:24.342Z,23.00
2019-02-21T02:29:28.757Z,20.72
2019-02-21T02:30:31.268Z,20.52
2019-02-21T02:31:34.115Z,22.93
2019-02-21T02:32:36.871Z,22.15
2019-02-21T02:33:39.786Z,21.07
2019-02-21T02:34:42.503Z,22.32
2019-02-21T02:35:45.137Z,25.15
2019-02-21T02:36:47.842Z,22.60
2019-02-21T02:37:50.501Z,21.62
2019-02-21T02:38:54.842Z,23.10
2019-02-21T02:39:57.503Z,25.25
2019-02-21T02:41:00.113Z,26.05
2019-02-21T02:42:02.661Z,23.62
2019-02-21T02:43:05.496Z,26.62
2019-02-21T02:44:09.806Z,24.47
2019-02-21T02:45:12.455Z,24.80
2019-02-21T02:46:14.989Z,24.02
2019-02-21T02:47:17.517Z,27.20
2019-02-21T02:48:21.217Z,23.87
2019-02-21T02:49:23.975Z,25.30
2019-02-21T02:50:26.495Z,24.23
2019-02-21T02:51:29.247Z,26.25
2019-02-21T02:52:31.873Z,24.32
2019-02-21T02:53:34.413Z,24.18
2019-02-21T02:54:37.154Z,23.87
2019-02-21T02:55:40.114Z,24.07
2019-02-21T02:56:42.684Z,24.72
2019-02-21T02:57:45.716Z,25.50
2019-02-21T02:58:50.071Z,23.98
2019-02-21T02:59:53.711Z,26.55
2019-02-21T03:00:56.575Z,22.35
2019-02-21T03:01:59.099Z,24.67
2019-02-21T03:03:01.770Z,23.15
2019-02-21T03:04:04.377Z,23.18
2019-02-21T03:05:07.280Z,23.57
2019-02-21T03:06:09.883Z,24.05
2019-02-21T03:07:13.095Z,26.62
2019-02-21T03:08:15.631Z,23.32
2019-02-21T03:09:18.401Z,22.70
2019-02-21T03:10:20.951Z,23.35
2019-02-21T03:11:23.582Z,23.90
2019-02-21T03:12:26.346Z,25.05
2019-02-21T03:13:29.002Z,22.55
2019-02-21T03:14:31.737Z,23.22
2019-02-21T03:15:34.288Z,21.37
2019-02-21T03:16:37.023Z,25.20
2019-02-21T03:17:39.560Z,23.57
2019-02-21T03:18:42.334Z,21.57
2019-02-21T03:19:44.971Z,25.45
2019-02-21T03:20:47.684Z,25.17
2019-02-21T03:21:50.422Z,21.12
2019-02-21T03:22:53.064Z,23.47
2019-02-21T03:23:55.691Z,23.20
2019-02-21T03:24:58.339Z,22.75
2019-02-21T03:26:01.213Z,22.77
2019-02-21T03:27:03.995Z,22.60
2019-02-21T03:28:06.688Z,27.55
2019-02-21T03:29:09.224Z,23.45
2019-02-21T03:30:12.842Z,23.75
2019-02-21T03:31:15.722Z,24.65
2019-02-21T03:32:18.493Z,22.30
2019-02-21T03:33:21.212Z,28.50
2019-02-21T03:34:23.861Z,25.52
2019-02-21T03:35:26.471Z,25.55
2019-02-21T03:36:29.001Z,23.30
2019-02-21T03:37:31.754Z,25.23
2019-02-21T03:38:35.364Z,24.75
2019-02-21T03:39:38.409Z,21.42
2019-02-21T03:40:41.045Z,23.50
2019-02-21T03:41:43.709Z,26.73
2019-02-21T03:42:46.327Z,22.35
2019-02-21T03:43:49.067Z,23.47
2019-02-21T03:44:51.676Z,22.37
2019-02-21T03:45:54.202Z,24.15
2019-02-21T03:46:56.861Z,21.25
2019-02-21T03:47:59.410Z,24.52
2019-02-21T03:49:01.975Z,23.57
2019-02-21T03:50:04.959Z,22.67
2019-02-21T03:51:07.659Z,20.90
2019-02-21T03:52:10.173Z,22.65
2019-02-21T03:53:12.689Z,21.90
2019-02-21T03:54:15.320Z,22.30
2019-02-21T03:55:17.851Z,20.97
2019-02-21T03:56:20.440Z,22.05
2019-02-21T03:57:23.254Z,22.07
2019-02-21T03:58:25.900Z,21.15
2019-02-21T03:59:28.417Z,21.90
2019-02-21T04:00:31.126Z,21.80
2019-02-21T04:01:33.723Z,20.77
2019-02-21T04:02:36.546Z,23.00
2019-02-21T04:03:39.067Z,20.43
2019-02-21T04:04:41.634Z,23.12
2019-02-21T04:05:44.298Z,19.95
2019-02-21T04:06:47.224Z,20.20
2019-02-21T04:07:50.053Z,21.87
2019-02-21T04:08:52.699Z,20.12
2019-02-21T04:09:55.406Z,20.75
2019-02-21T04:10:57.968Z,21.23
2019-02-21T04:12:00.670Z,20.25
2019-02-21T04:13:03.603Z,22.93
2019-02-21T04:14:06.147Z,20.88
2019-02-21T04:15:10.592Z,21.05
2019-02-21T04:16:15.204Z,21.48
2019-02-21T04:17:17.731Z,21.77
2019-02-21T04:18:20.400Z,21.80
2019-02-21T04:19:22.935Z,20.25
2019-02-21T04:20:25.468Z,21.15
2019-02-21T04:21:27.996Z,21.62
2019-02-21T04:22:30.591Z,22.60
2019-02-21T04:23:33.157Z,20.72
2019-02-21T04:24:35.736Z,19.42
2019-02-21T04:25:38.319Z,19.73
2019-02-21T04:26:40.883Z,18.70
2019-02-21T04:27:43.499Z,19.25
2019-02-21T04:28:46.319Z,22.48
2019-02-21T04:29:49.071Z,20.55
2019-02-21T04:30:51.785Z,17.25
2019-02-21T04:31:54.437Z,21.45
2019-02-21T04:32:57.417Z,22.62
2019-02-21T04:34:00.055Z,19.37
2019-02-21T04:35:02.725Z,24.35
2019-02-21T04:36:05.607Z,18.75
2019-02-21T04:37:10.188Z,23.52
2019-02-21T04:38:13.174Z,18.45
2019-02-21T04:39:15.799Z,17.87
2019-02-21T04:40:18.528Z,20.50
2019-02-21T04:41:21.374Z,19.50
2019-02-21T04:42:24.010Z,19.67
2019-02-21T04:43:26.854Z,20.88
2019-02-21T04:44:29.615Z,18.98
2019-02-21T04:45:32.260Z,19.67
2019-02-21T04:46:34.785Z,21.17
2019-02-21T04:47:37.312Z,18.85
2019-02-21T04:48:40.042Z,20.55
2019-02-21T04:49:42.565Z,19.37
2019-02-21T04:50:47.330Z,20.30
2019-02-21T04:51:49.870Z,20.77
2019-02-21T04:52:53.449Z,21.05
2019-02-21T04:53:57.845Z,18.98
2019-02-21T04:55:00.587Z,22.93
2019-02-21T04:56:04.225Z,24.15
2019-02-21T04:57:07.012Z,26.95
2019-02-21T04:58:09.624Z,21.27
2019-02-21T04:59:12.350Z,21.00
2019-02-21T05:00:14.897Z,20.68
2019-02-21T05:01:17.437Z,19.73
2019-02-21T05:02:28.525Z,21.35
2019-02-21T05:03:24.636Z,20.62
2019-02-21T05:04:27.225Z,24.75
2019-02-21T05:05:29.837Z,20.20
2019-02-21T05:06:32.361Z,20.23
2019-02-21T05:07:35.183Z,22.35
2019-02-21T05:08:37.810Z,23.77
2019-02-21T05:09:40.422Z,22.77
2019-02-21T05:10:43.008Z,19.92
2019-02-21T05:11:45.770Z,19.23
2019-02-21T05:12:48.638Z,20.92
2019-02-21T05:13:51.286Z,20.97
2019-02-21T05:14:53.851Z,23.30
2019-02-21T05:15:56.402Z,20.48
2019-02-21T05:17:00.674Z,24.32
2019-02-21T05:18:03.508Z,21.52
2019-02-21T05:19:06.139Z,24.10
2019-02-21T05:20:08.806Z,21.95
2019-02-21T05:21:11.377Z,22.85
2019-02-21T05:22:14.013Z,22.95
2019-02-21T05:23:16.750Z,26.02
2019-02-21T05:24:19.692Z,25.72
2019-02-21T05:25:22.305Z,22.50
2019-02-21T05:26:30.118Z,21.48
2019-02-21T05:27:35.179Z,23.57
2019-02-21T05:28:37.714Z,23.55
2019-02-21T05:29:40.346Z,21.60
2019-02-21T05:30:43.043Z,25.85
2019-02-21T05:31:54.669Z,23.15
2019-02-21T05:33:19.859Z,24.55
2019-02-21T05:34:36.685Z,24.82
2019-02-21T05:36:11.021Z,31.37
2019-02-21T05:37:34.645Z,25.02
2019-02-21T05:38:51.572Z,23.40
2019-02-21T05:40:28.345Z,25.48
2019-02-21T05:41:38.470Z,26.87
2019-02-21T05:43:03.409Z,28.15
2019-02-21T05:44:24.396Z,28.20
2019-02-21T05:45:41.787Z,26.35
2019-02-21T05:46:58.203Z,29.67
2019-02-21T05:48:13.952Z,25.85
2019-02-21T05:49:25.834Z,29.23
2019-02-21T05:50:57.030Z,28.15
2019-02-21T05:52:10.723Z,26.17
2019-02-21T05:53:32.671Z,28.80
2019-02-21T05:54:57.586Z,30.48
2019-02-21T05:56:19.728Z,28.05
2019-02-21T05:57:39.667Z,28.42
2019-02-21T05:59:00.875Z,30.10
2019-02-21T06:00:39.255Z,31.30
2019-02-21T06:01:59.740Z,30.88
2019-02-21T06:03:10.071Z,30.37
2019-02-21T06:04:34.928Z,30.70
2019-02-21T06:05:59.893Z,30.48
2019-02-21T06:07:22.043Z,30.12
2019-02-21T06:08:44.368Z,30.88
2019-02-21T06:09:53.445Z,33.00
2019-02-21T06:11:08.381Z,38.42
2019-02-21T06:12:36.342Z,32.03
2019-02-21T06:13:58.399Z,33.28
2019-02-21T06:15:18.119Z,31.62
2019-02-21T06:16:32.668Z,32.15
2019-02-21T06:18:00.639Z,31.80
2019-02-21T06:19:20.297Z,33.75
2019-02-21T06:20:45.375Z,31.82
2019-02-21T06:22:10.111Z,32.73
2019-02-21T06:23:30.366Z,32.38
2019-02-21T06:24:38.357Z,34.35
2019-02-21T06:25:53.210Z,31.77
2019-02-21T06:27:01.827Z,32.65
2019-02-21T06:28:26.761Z,31.12
2019-02-21T06:29:34.506Z,30.70
2019-02-21T06:30:47.457Z,30.97
2019-02-21T06:31:50.245Z,31.20
2019-02-21T06:33:04.095Z,31.45
2019-02-21T06:33:57.558Z,34.70
2019-02-21T06:35:02.563Z,31.95
2019-02-21T06:36:04.845Z,31.12
2019-02-21T06:37:07.382Z,33.23
2019-02-21T06:38:09.963Z,32.05
2019-02-21T06:39:12.529Z,32.03
2019-02-21T06:40:15.088Z,34.70
2019-02-21T06:41:17.817Z,29.40
2019-02-21T06:42:20.474Z,35.00
2019-02-21T06:43:23.195Z,32.85
2019-02-21T06:44:25.949Z,32.53
2019-02-21T06:45:28.506Z,30.55
2019-02-21T06:46:31.413Z,32.98
2019-02-21T06:47:34.015Z,31.80
2019-02-21T06:48:36.878Z,31.60
2019-02-21T06:49:39.410Z,32.88
2019-02-21T06:50:41.970Z,32.20
2019-02-21T06:51:44.543Z,29.80
2019-02-21T06:52:47.064Z,37.25
2019-02-21T06:53:49.589Z,34.23
2019-02-21T06:54:52.134Z,36.58
2019-02-21T06:55:54.665Z,31.02
2019-02-21T06:56:57.299Z,31.60
2019-02-21T06:57:59.971Z,36.60
2019-02-21T06:59:02.619Z,35.40
2019-02-21T07:00:05.381Z,31.05
2019-02-21T07:01:07.918Z,32.17
2019-02-21T07:02:10.475Z,31.45
2019-02-21T07:03:15.744Z,33.28
2019-02-21T07:04:17.486Z,35.20
2019-02-21T07:05:20.017Z,28.35
2019-02-21T07:06:31.887Z,32.55
2019-02-21T07:07:28.687Z,31.97
2019-02-21T07:08:31.386Z,31.65
2019-02-21T07:09:33.905Z,32.95
2019-02-21T07:10:36.443Z,30.12
2019-02-21T07:11:39.403Z,30.88
2019-02-21T07:12:42.054Z,34.33
2019-02-21T07:13:44.609Z,30.15
2019-02-21T07:14:47.139Z,32.42
2019-02-21T07:15:49.675Z,34.45
2019-02-21T07:16:52.185Z,34.18
2019-02-21T07:17:54.813Z,33.67
2019-02-21T07:18:57.328Z,34.65
2019-02-21T07:19:59.858Z,30.55
2019-02-21T07:21:02.392Z,31.33
2019-02-21T07:22:06.301Z,30.48
2019-02-21T07:23:11.215Z,32.88
2019-02-21T07:24:13.519Z,31.62
2019-02-21T07:25:34.336Z,29.98
2019-02-21T07:26:36.898Z,30.12
2019-02-21T07:27:39.579Z,33.73
2019-02-21T07:28:42.147Z,29.63
2019-02-21T07:29:44.952Z,31.35
2019-02-21T07:30:48.607Z,30.23
2019-02-21T07:31:51.247Z,33.30
2019-02-21T07:32:53.949Z,32.65
2019-02-21T07:33:56.490Z,30.00
2019-02-21T07:34:59.206Z,30.32
2019-02-21T07:36:14.920Z,33.42
2019-02-21T07:37:19.008Z,32.93
2019-02-21T07:38:22.067Z,30.65
2019-02-21T07:39:35.301Z,30.55
2019-02-21T07:40:29.534Z,33.75
2019-02-21T07:41:32.138Z,31.57
2019-02-21T07:42:34.988Z,32.23
2019-02-21T07:43:37.914Z,32.17
2019-02-21T07:44:40.695Z,34.00
2019-02-21T07:45:43.426Z,31.75
2019-02-21T07:46:46.423Z,30.12
2019-02-21T07:47:49.302Z,29.98
2019-02-21T07:48:51.955Z,31.48
2019-02-21T07:49:54.704Z,31.35
2019-02-21T07:50:57.516Z,35.88
2019-02-21T07:52:00.053Z,33.80
2019-02-21T07:53:03.045Z,31.23
2019-02-21T07:54:05.978Z,27.87
2019-02-21T07:55:10.430Z,28.83
2019-02-21T07:56:14.867Z,32.15
2019-02-21T07:57:17.439Z,30.40
2019-02-21T07:58:20.114Z,29.92
2019-02-21T07:59:22.822Z,31.17
2019-02-21T08:00:27.185Z,30.70
2019-02-21T08:01:29.790Z,28.92
2019-02-21T08:02:32.355Z,31.52
2019-02-21T08:03:43.772Z,29.07
2019-02-21T08:04:39.485Z,28.83
2019-02-21T08:05:42.232Z,31.27
2019-02-21T08:06:44.964Z,28.90
2019-02-21T08:07:49.799Z,26.10
2019-02-21T08:08:52.377Z,26.75
2019-02-21T08:09:55.129Z,28.42
2019-02-21T08:10:57.855Z,28.95
2019-02-21T08:12:00.736Z,27.02
2019-02-21T08:13:03.268Z,31.20
2019-02-21T08:14:07.108Z,30.72
2019-02-21T08:15:11.917Z,28.40
2019-02-21T08:16:14.858Z,29.48
2019-02-21T08:17:17.416Z,30.52
2019-02-21T08:18:20.560Z,31.50
2019-02-21T08:19:25.079Z,25.48
2019-02-21T08:20:34.150Z,30.75
2019-02-21T08:21:32.484Z,28.55
2019-02-21T08:22:35.283Z,27.95
2019-02-21T08:23:37.824Z,30.20
2019-02-21T08:24:40.585Z,28.95
2019-02-21T08:25:43.130Z,31.73
2019-02-21T08:26:45.714Z,30.90
2019-02-21T08:27:48.254Z,27.48
2019-02-21T08:28:50.799Z,29.02
2019-02-21T08:29:53.469Z,28.27
2019-02-21T08:30:58.147Z,28.42
2019-02-21T08:32:00.933Z,34.43
2019-02-21T08:33:11.521Z,28.07
2019-02-21T08:35:20.489Z,29.27
2019-02-21T08:36:23.213Z,29.30
2019-02-21T08:37:25.751Z,31.25
2019-02-21T08:38:28.317Z,29.85
2019-02-21T08:39:31.030Z,32.33
2019-02-21T08:40:33.623Z,32.60
2019-02-21T08:41:36.448Z,28.55
2019-02-21T08:42:38.981Z,35.52
2019-02-21T08:43:41.472Z,37.48
2019-02-21T08:44:44.109Z,32.78
2019-02-21T08:45:46.658Z,32.55
2019-02-21T08:46:49.368Z,28.87
2019-02-21T08:47:51.951Z,34.90
2019-02-21T08:48:54.708Z,34.60
2019-02-21T08:49:59.597Z,33.60
2019-02-21T08:51:02.075Z,39.45
2019-02-21T08:52:04.766Z,36.38
2019-02-21T08:53:07.453Z,39.10
2019-02-21T08:54:11.487Z,34.67
2019-02-21T08:55:14.572Z,35.35
2019-02-21T08:56:17.288Z,37.13
2019-02-21T08:57:21.455Z,38.25
2019-02-21T08:58:24.378Z,29.02
2019-02-21T08:59:26.916Z,36.58
2019-02-21T09:00:31.538Z,26.62
2019-02-21T09:01:34.368Z,34.98
2019-02-21T09:02:36.931Z,27.52
2019-02-21T09:03:39.479Z,30.32
2019-02-21T09:04:42.079Z,35.10
2019-02-21T09:05:44.661Z,31.17
2019-02-21T09:06:48.746Z,31.82
2019-02-21T09:07:51.557Z,32.65
2019-02-21T09:08:54.489Z,32.15
2019-02-21T09:09:57.126Z,32.23
2019-02-21T09:10:59.970Z,34.75
2019-02-21T09:12:05.392Z,34.13
2019-02-21T09:13:35.530Z,31.17
2019-02-21T09:14:41.130Z,31.80
2019-02-21T09:15:46.667Z,30.85
2019-02-21T09:17:01.490Z,31.05
2019-02-21T09:18:12.353Z,28.10
2019-02-21T09:21:04.250Z,35.38
2019-02-21T09:25:16.058Z,30.82
2019-02-21T09:34:08.688Z,29.02
2019-02-21T09:35:45.163Z,33.88
2019-02-21T09:37:05.458Z,29.30
2019-02-21T09:38:09.320Z,29.75
2019-02-21T09:39:33.337Z,31.37
2019-02-21T09:40:46.353Z,29.92
2019-02-21T09:41:53.488Z,30.80
2019-02-21T09:43:07.428Z,32.10
2019-02-21T09:44:27.728Z,31.40
2019-02-21T09:45:22.280Z,30.92
2019-02-21T09:48:02.027Z,32.73
2019-02-21T09:49:04.740Z,29.02
2019-02-21T09:50:07.789Z,29.37
2019-02-21T09:51:10.354Z,26.62
2019-02-21T09:52:12.992Z,28.50
2019-02-21T09:53:15.662Z,26.02
2019-02-21T09:54:20.265Z,27.32
2019-02-21T09:55:23.010Z,28.45
2019-02-21T09:56:30.308Z,24.60
2019-02-21T09:57:30.212Z,30.23
2019-02-21T09:58:32.881Z,25.80
2019-02-21T09:59:37.424Z,27.07
2019-02-21T10:00:39.968Z,26.33
2019-02-21T10:01:42.529Z,25.68
2019-02-21T10:02:45.330Z,28.15
2019-02-21T10:03:47.990Z,27.05
2019-02-21T10:04:50.852Z,32.00
2019-02-21T10:05:53.399Z,26.07
2019-02-21T10:06:57.734Z,30.72
2019-02-21T10:08:00.516Z,27.32
2019-02-21T10:09:04.471Z,25.40
2019-02-21T10:10:10.567Z,27.05
2019-02-21T10:11:13.141Z,26.73
2019-02-21T10:12:15.691Z,26.73
2019-02-21T10:13:18.361Z,25.32
2019-02-21T10:14:21.617Z,28.92
2019-02-21T10:15:24.530Z,24.40
2019-02-21T10:16:27.405Z,25.35
2019-02-21T10:17:30.151Z,26.15
2019-02-21T10:18:32.851Z,21.97
2019-02-21T10:19:35.811Z,25.17
2019-02-21T10:20:38.801Z,26.57
2019-02-21T10:21:41.486Z,27.55
2019-02-21T10:22:44.049Z,25.97
2019-02-21T10:23:46.628Z,27.40
2019-02-21T10:24:50.193Z,32.63
2019-02-21T10:25:53.236Z,28.42
2019-02-21T10:26:56.001Z,26.57
2019-02-21T10:27:59.206Z,27.98
2019-02-21T10:29:02.153Z,29.65
2019-02-21T10:30:06.160Z,30.65
2019-02-21T10:31:08.906Z,29.30
2019-02-21T10:32:11.444Z,23.60
2019-02-21T10:33:14.225Z,28.92
2019-02-21T10:34:17.018Z,30.95
2019-02-21T10:35:19.934Z,26.80
2019-02-21T10:36:22.813Z,27.58
2019-02-21T10:37:25.592Z,31.70
2019-02-21T10:38:28.326Z,29.10
2019-02-21T10:39:30.889Z,34.88
2019-02-21T10:40:33.736Z,30.15
2019-02-21T10:41:36.291Z,30.77
2019-02-21T10:42:39.312Z,29.25
2019-02-21T10:43:41.848Z,31.50
2019-02-21T10:44:44.393Z,32.78
2019-02-21T10:45:48.176Z,34.43
2019-02-21T10:46:51.186Z,32.90
2019-02-21T10:47:53.903Z,31.82
2019-02-21T10:48:56.693Z,29.52
2019-02-21T10:49:59.239Z,29.23
2019-02-21T10:51:01.835Z,34.30
2019-02-21T10:52:06.263Z,34.25
2019-02-21T10:53:08.945Z,34.25
2019-02-21T10:54:11.725Z,33.78
2019-02-21T10:55:14.877Z,35.60
2019-02-21T10:56:17.550Z,33.80
2019-02-21T10:57:20.112Z,34.53
2019-02-21T10:58:22.801Z,32.45
2019-02-21T10:59:25.481Z,36.58
2019-02-21T11:00:28.767Z,34.48
2019-02-21T11:01:31.339Z,34.85
2019-02-21T11:02:33.884Z,39.85
2019-02-21T11:03:36.521Z,33.95
2019-02-21T11:04:42.000Z,31.87
2019-02-21T11:05:43.472Z,34.00
2019-02-21T11:06:46.008Z,33.83
2019-02-21T11:07:48.685Z,31.17
2019-02-21T11:08:51.262Z,29.57
2019-02-21T11:09:53.813Z,38.42
2019-02-21T11:10:56.411Z,31.55
2019-02-21T11:11:58.952Z,30.82
2019-02-21T11:13:01.478Z,26.07
2019-02-21T11:14:04.120Z,36.03
2019-02-21T11:15:09.501Z,35.60
2019-02-21T11:16:12.080Z,34.27
2019-02-21T11:17:14.611Z,35.65
2019-02-21T11:18:17.153Z,34.10
2019-02-21T11:19:19.727Z,37.75
2019-02-21T11:20:22.437Z,32.48
2019-02-21T11:21:25.074Z,31.00
2019-02-21T11:22:27.841Z,27.65
2019-02-21T11:23:30.447Z,37.08
2019-02-21T11:24:33.184Z,37.60
2019-02-21T11:25:35.741Z,36.70
2019-02-21T11:26:38.333Z,36.10
2019-02-21T11:27:41.186Z,29.23
2019-02-21T11:28:47.269Z,35.58
2019-02-21T11:29:50.135Z,34.30
2019-02-21T11:30:52.736Z,37.28
2019-02-21T11:31:55.412Z,33.88
2019-02-21T11:32:58.022Z,33.05
2019-02-21T11:34:00.616Z,32.48
2019-02-21T11:35:06.646Z,35.03
2019-02-21T11:36:08.334Z,36.25
2019-02-21T11:37:12.870Z,36.45
2019-02-21T11:38:15.418Z,39.67
2019-02-21T11:39:17.946Z,39.00
2019-02-21T11:40:20.654Z,41.23
2019-02-21T11:41:23.587Z,38.23
2019-02-21T11:42:28.558Z,47.15
2019-02-21T11:43:31.225Z,44.60
2019-02-21T11:44:33.992Z,41.33
2019-02-21T11:45:37.237Z,43.35
2019-02-21T11:46:40.055Z,48.63
2019-02-21T11:47:42.775Z,39.30
2019-02-21T11:48:45.466Z,44.75
2019-02-21T11:49:48.237Z,45.45
2019-02-21T11:50:51.064Z,43.87
2019-02-21T11:51:53.758Z,43.02
2019-02-21T11:52:56.833Z,41.60
2019-02-21T11:53:59.406Z,42.83
2019-02-21T11:55:01.965Z,41.98
2019-02-21T11:56:04.617Z,41.83
2019-02-21T11:57:07.187Z,34.40
2019-02-21T11:58:09.773Z,45.28
2019-02-21T11:59:12.306Z,37.33
2019-02-21T12:00:19.942Z,43.10
2019-02-21T12:01:22.473Z,33.05
2019-02-21T12:02:25.105Z,37.65
2019-02-21T12:03:27.782Z,48.05
2019-02-21T12:04:30.330Z,48.85
2019-02-21T12:05:32.916Z,44.60
2019-02-21T12:06:35.713Z,43.10
2019-02-21T12:07:38.354Z,43.15
2019-02-21T12:08:40.978Z,41.68
2019-02-21T12:09:44.000Z,43.10
2019-02-21T12:10:46.534Z,48.98
2019-02-21T12:11:49.131Z,46.77
2019-02-21T12:12:51.799Z,45.75
2019-02-21T12:13:54.406Z,55.08
2019-02-21T12:14:57.003Z,46.15
2019-02-21T12:15:59.602Z,43.33
2019-02-21T12:17:02.243Z,48.23
2019-02-21T12:18:05.096Z,44.60
2019-02-21T12:19:08.856Z,47.98
2019-02-21T12:20:11.782Z,49.27
2019-02-21T12:21:14.595Z,48.05
2019-02-21T12:22:17.146Z,44.50
2019-02-21T12:23:20.315Z,47.20
2019-02-21T12:24:23.030Z,47.67
2019-02-21T12:25:25.817Z,42.83
2019-02-21T12:26:28.563Z,43.75
2019-02-21T12:27:32.699Z,39.03
2019-02-21T12:28:35.242Z,45.98
2019-02-21T12:29:37.810Z,49.77
2019-02-21T12:30:40.771Z,45.10
2019-02-21T12:31:43.847Z,44.23
2019-02-21T12:32:46.429Z,38.50
2019-02-21T12:33:49.124Z,38.70
2019-02-21T12:34:51.664Z,45.75
2019-02-21T12:35:54.424Z,42.13
2019-02-21T12:36:57.106Z,42.27
2019-02-21T12:37:59.946Z,44.88
2019-02-21T12:39:04.097Z,42.43
2019-02-21T12:40:08.346Z,49.83
2019-02-21T12:41:10.912Z,41.58
2019-02-21T12:42:13.465Z,43.33
2019-02-21T12:43:16.190Z,40.60
2019-02-21T12:44:19.878Z,45.67
2019-02-21T12:45:22.608Z,42.88
2019-02-21T12:46:25.446Z,36.70
2019-02-21T12:47:28.115Z,40.23
2019-02-21T12:48:30.709Z,39.85
2019-02-21T12:49:33.257Z,39.40
2019-02-21T12:50:43.955Z,46.80
2019-02-21T12:51:40.331Z,38.65
2019-02-21T12:52:43.012Z,41.40
2019-02-21T12:53:45.570Z,36.95
2019-02-21T12:54:48.346Z,41.80
2019-02-21T12:55:51.179Z,39.78
2019-02-21T12:56:53.731Z,39.20
2019-02-21T12:57:56.307Z,34.43
2019-02-21T12:58:58.876Z,31.10
2019-02-21T13:00:01.424Z,37.95
2019-02-21T13:01:04.015Z,33.95
2019-02-21T13:02:06.554Z,38.95
2019-02-21T13:03:11.214Z,40.60
2019-02-21T13:04:13.900Z,37.13
2019-02-21T13:05:16.787Z,39.78
2019-02-21T13:06:19.310Z,41.77
2019-02-21T13:07:21.931Z,39.35
2019-02-21T13:08:24.701Z,41.70
2019-02-21T13:09:27.728Z,41.53
2019-02-21T13:10:30.703Z,38.98
2019-02-21T13:11:35.506Z,40.98
2019-02-21T13:12:37.847Z,41.45
2019-02-21T13:13:40.429Z,40.67
2019-02-21T13:14:43.185Z,38.20
2019-02-21T13:15:58.549Z,39.78
2019-02-21T13:17:01.080Z,40.03
2019-02-21T13:18:03.604Z,40.92
2019-02-21T13:19:06.175Z,35.58
2019-02-21T13:20:09.990Z,36.68
2019-02-21T13:21:12.788Z,35.10
2019-02-21T13:22:15.463Z,34.63
2019-02-21T13:23:18.174Z,38.60
2019-02-21T13:24:20.946Z,38.05
2019-02-21T13:25:23.587Z,35.58
2019-02-21T13:26:26.224Z,41.00
2019-02-21T13:27:28.794Z,34.50
2019-02-21T13:28:31.809Z,34.75
2019-02-21T13:29:34.406Z,36.08
2019-02-21T13:30:37.205Z,39.05
2019-02-21T13:31:40.123Z,29.55
2019-02-21T13:32:43.073Z,32.93
2019-02-21T13:33:45.664Z,33.67
2019-02-21T13:34:48.550Z,34.00
2019-02-21T13:35:53.008Z,32.98
2019-02-21T13:36:58.654Z,31.33
2019-02-21T13:38:01.670Z,35.80
2019-02-21T13:39:07.001Z,35.85
2019-02-21T13:40:11.356Z,28.92
2019-02-21T13:41:14.043Z,37.15
2019-02-21T13:42:17.314Z,31.52
2019-02-21T13:43:21.172Z,36.30
2019-02-21T13:44:24.976Z,33.60
2019-02-21T13:45:27.586Z,31.77
2019-02-21T13:46:37.373Z,35.38
2019-02-21T13:47:34.875Z,30.20
2019-02-21T13:48:37.531Z,34.43
2019-02-21T13:49:40.106Z,35.48
2019-02-21T13:50:42.747Z,34.30
2019-02-21T13:51:45.291Z,36.28
2019-02-21T13:52:47.783Z,36.25
2019-02-21T13:53:52.365Z,33.55
2019-02-21T13:54:54.916Z,31.97
2019-02-21T13:55:57.545Z,30.85
2019-02-21T13:57:00.192Z,34.55
2019-02-21T13:58:02.720Z,35.48
2019-02-21T13:59:05.261Z,38.23
2019-02-21T14:00:13.701Z,38.25
2019-02-21T14:01:16.398Z,38.65
2019-02-21T14:02:18.999Z,35.05